Time;durP1;ratioP1;P1;durP2;ratioP2;P2;SDS_P1;SDS_P2;PMS_P1;PMS_P2;Temp;Humidity;BMP_temperature;BMP_pressure;BME280_temperature;BME280_humidity;BME280_pressure;Samples;Min_cycle;Max_cycle;Signal;HPM_P1;HPM_P2
2022/10/22 00:02:15;;;;;;;19.23;13.10;;;;;;;10.30;90.70;98804.94;1727353;83;21519;-43
2022/10/22 00:04:41;;;;;;;23.75;12.50;;;;;;;10.27;91.75;98802.49;1711574;82;21453;-42
2022/10/22 00:07:08;;;;;;;23.42;11.83;;;;;;;10.24;91.57;98800.08;1722372;82;20987;-44
2022/10/22 00:09:35;;;;;;;18.33;11.97;;;;;;;10.19;92.66;98794.26;1724185;83;21531;-39
2022/10/22 00:12:02;;;;;;;19.53;12.30;;;;;;;10.18;93.22;98795.18;1714488;83;21016;-41
2022/10/22 00:14:29;;;;;;;15.80;11.80;;;;;;;10.21;93.24;98800.25;1719496;83;21039;-47
2022/10/22 00:16:59;;;;;;;17.60;11.85;;;;;;;10.22;92.42;98796.67;1704519;83;21100;-43
2022/10/22 00:19:26;;;;;;;15.25;11.63;;;;;;;10.24;92.35;98795.27;1712052;83;20996;-45
2022/10/22 00:21:53;;;;;;;24.72;12.63;;;;;;;10.23;92.61;98801.00;1714890;82;21584;-45
2022/10/22 00:24:20;;;;;;;17.75;11.40;;;;;;;10.23;93.01;98798.38;1716754;83;21130;-42
2022/10/22 00:26:46;;;;;;;16.93;11.53;;;;;;;10.17;94.18;98807.48;1720871;82;21039;-42
2022/10/22 00:29:13;;;;;;;20.23;11.63;;;;;;;10.15;92.39;98805.42;1715366;82;21066;-44
2022/10/22 00:31:40;;;;;;;17.33;10.70;;;;;;;10.05;93.98;98800.82;1721124;82;21019;-45
2022/10/22 00:34:06;;;;;;;16.77;10.70;;;;;;;9.98;95.04;98792.45;1712476;82;21558;-43
2022/10/22 00:36:33;;;;;;;13.43;10.13;;;;;;;9.94;96.30;98793.59;1724160;82;21015;-40
2022/10/22 00:39:00;;;;;;;16.10;11.13;;;;;;;9.89;97.08;98790.39;1717426;82;21568;-43
2022/10/22 00:41:27;;;;;;;17.02;10.50;;;;;;;9.86;97.92;98787.50;1713042;82;21066;-43
2022/10/22 00:44:01;;;;;;;15.43;11.20;;;;;;;9.86;97.20;98796.69;1712499;83;21066;-44
2022/10/22 00:46:28;;;;;;;15.53;11.60;;;;;;;9.90;96.80;98797.34;1720693;82;21101;-45
2022/10/22 00:48:58;;;;;;;17.75;10.98;;;;;;;9.88;98.22;98800.55;1720899;82;21042;-44
2022/10/22 00:51:29;;;;;;;18.55;11.55;;;;;;;9.84;98.33;98806.45;1708975;83;21504;-45
2022/10/22 00:54:02;;;;;;;16.23;12.25;;;;;;;9.83;97.01;98802.11;1716254;82;21611;-45
2022/10/22 00:56:29;;;;;;;19.73;12.07;;;;;;;9.85;95.99;98808.12;1697611;82;21512;-47
2022/10/22 00:58:58;;;;;;;19.92;12.00;;;;;;;9.86;96.38;98807.20;1724086;82;21076;-44
2022/10/22 01:01:29;;;;;;;17.37;11.45;;;;;;;9.87;96.51;98809.34;1703893;83;21467;-44
2022/10/22 01:03:56;;;;;;;16.82;11.65;;;;;;;9.86;95.55;98811.58;1710090;82;21492;-41
2022/10/22 01:06:28;;;;;;;17.27;11.55;;;;;;;9.86;96.22;98811.13;1717852;83;21023;-43
2022/10/22 01:09:12;;;;;;;13.95;10.10;;;;;;;9.88;95.86;98796.60;1716810;82;21163;-47
2022/10/22 01:12:02;;;;;;;20.95;11.38;;;;;;;9.85;96.48;98779.23;1728267;83;20991;-46
2022/10/22 01:15:12;;;;;;;17.23;10.88;;;;;;;9.87;95.93;98783.91;1702685;83;21110;-43
2022/10/22 01:18:08;;;;;;;17.52;10.18;;;;;;;9.90;95.57;98792.09;1708207;83;21004;-42
2022/10/22 01:20:58;;;;;;;20.45;11.40;;;;;;;9.91;95.77;98771.44;1720848;83;21577;-43
2022/10/22 01:23:51;;;;;;;18.02;11.10;;;;;;;9.92;95.73;98773.14;1714769;82;21046;-41
2022/10/22 01:26:59;;;;;;;17.48;10.68;;;;;;;9.92;95.64;98777.09;1719443;83;21010;-41
2022/10/22 01:29:46;;;;;;;16.05;11.18;;;;;;;9.92;95.44;98781.86;1723075;83;20991;-46
2022/10/22 01:32:16;;;;;;;;;;;;;;;9.92;95.81;98792.84;1712283;83;21031;-43
2022/10/22 01:34:48;;;;;;;18.73;11.22;;;;;;;9.92;96.23;98783.17;1723307;83;20100;-45
2022/10/22 01:37:17;;;;;;;15.63;9.80;;;;;;;9.91;96.46;98777.53;1713871;83;21049;-44
2022/10/22 01:39:46;;;;;;;15.90;11.03;;;;;;;9.89;96.31;98771.53;1720825;83;21071;-45
2022/10/22 01:42:14;;;;;;;16.75;10.88;;;;;;;9.91;95.46;98776.70;1723172;82;21022;-44
2022/10/22 01:44:41;;;;;;;15.00;10.68;;;;;;;9.89;96.06;98771.53;1719096;82;21011;-46
2022/10/22 01:47:40;;;;;;;15.05;10.60;;;;;;;9.89;95.58;98769.38;1714757;83;21030;-42
2022/10/22 01:50:46;;;;;;;22.10;10.80;;;;;;;9.87;95.70;98755.02;1720979;82;21018;-44
2022/10/22 01:53:29;;;;;;;18.05;11.57;;;;;;;9.89;95.15;98757.09;1716503;82;21167;-43
2022/10/22 01:56:22;;;;;;;18.05;11.22;;;;;;;9.92;95.16;98751.66;1682957;84;21019;-42
2022/10/22 01:59:39;;;;;;;17.75;11.45;;;;;;;9.95;95.45;98749.30;1683415;84;21523;-47
2022/10/22 02:02:23;;;;;;;15.35;11.00;;;;;;;9.93;95.57;98751.18;1668287;84;21047;-42
2022/10/22 02:05:12;;;;;;;18.25;10.70;;;;;;;9.95;95.69;98751.48;1681793;84;21605;-44
2022/10/22 02:07:47;;;;;;;20.90;10.85;;;;;;;10.00;95.85;98751.18;1691765;84;21500;-44
2022/10/22 02:10:16;;;;;;;19.20;11.20;;;;;;;9.98;95.87;98743.39;1682921;84;21075;-41
2022/10/22 02:12:51;;;;;;;17.52;11.03;;;;;;;9.99;95.61;98742.46;1692233;84;21098;-40
2022/10/22 02:15:19;;;;;;;17.02;11.60;;;;;;;10.02;94.92;98743.20;1683543;84;21086;-42
2022/10/22 02:17:47;;;;;;;17.82;11.30;;;;;;;10.02;95.23;98733.53;1681611;84;21039;-47
2022/10/22 02:20:29;;;;;;;;;;;;;;;10.04;95.22;98742.19;1699133;84;21618;-50
2022/10/22 02:22:56;;;;;;;18.73;11.50;;;;;;;10.05;94.77;98743.03;1686124;84;20119;-43
2022/10/22 02:25:25;;;;;;;;;;;;;;;10.06;93.99;98734.19;1690754;84;21043;-45
2022/10/22 02:28:33;;;;;;;16.32;11.57;;;;;;;10.03;95.07;98721.27;1694499;85;20440;-46
2022/10/22 02:31:05;;;;;;;18.57;12.40;;;;;;;10.06;94.84;98717.11;1693455;84;21568;-48
2022/10/22 02:33:40;;;;;;;15.45;11.20;;;;;;;10.06;95.01;98715.80;1709518;82;21082;-43
2022/10/22 02:36:08;;;;;;;16.82;11.48;;;;;;;10.07;94.31;98714.39;1715502;83;21521;-41
2022/10/22 02:38:36;;;;;;;18.70;11.55;;;;;;;10.06;94.79;98710.55;1701996;83;20987;-44
2022/10/22 02:41:03;;;;;;;;;;;;;;;10.04;95.32;98717.23;1718794;79;22199;-42
2022/10/22 02:43:29;;;;;;;22.95;11.83;;;;;;;9.98;95.73;98719.75;1754516;81;20150;-47
2022/10/22 02:45:57;;;;;;;19.98;11.50;;;;;;;10.01;95.42;98726.61;1721772;82;21084;-43
2022/10/22 02:48:24;;;;;;;16.17;11.03;;;;;;;10.03;95.66;98744.91;1727704;81;20986;-46
2022/10/22 02:50:50;;;;;;;20.82;12.33;;;;;;;10.02;94.93;98757.66;1741064;81;21513;-47
2022/10/22 02:53:17;;;;;;;16.67;11.50;;;;;;;10.01;95.00;98776.52;1736999;82;21177;-42
2022/10/22 02:55:44;;;;;;;17.10;11.90;;;;;;;10.02;94.63;98794.43;1739180;81;21062;-44
2022/10/22 02:58:12;;;;;;;17.17;11.47;;;;;;;9.99;94.74;98785.80;1736676;82;21015;-47
2022/10/22 03:00:39;;;;;;;16.85;11.38;;;;;;;9.96;94.63;98780.73;1716841;81;21555;-42
2022/10/22 03:03:06;;;;;;;19.97;11.27;;;;;;;9.98;94.23;98783.27;1726747;82;21012;-44
2022/10/22 03:05:32;;;;;;;17.23;11.67;;;;;;;9.97;94.25;98764.52;1732113;81;21018;-49
2022/10/22 03:07:59;;;;;;;18.27;11.93;;;;;;;9.98;94.21;98773.59;1734615;81;21575;-45
2022/10/22 03:10:26;;;;;;;23.00;12.70;;;;;;;9.98;94.13;98770.97;1730174;82;21056;-46
2022/10/22 03:12:53;;;;;;;21.65;11.97;;;;;;;9.99;94.39;98760.85;1734823;81;21484;-44
2022/10/22 03:15:20;;;;;;;16.40;11.97;;;;;;;9.99;94.08;98745.56;1728043;82;21119;-41
2022/10/22 03:17:46;;;;;;;20.43;11.80;;;;;;;9.99;93.76;98742.46;1713910;81;21076;-49
2022/10/22 03:20:13;;;;;;;22.37;11.80;;;;;;;9.98;92.91;98741.23;1721402;82;21030;-44
2022/10/22 03:22:41;;;;;;;23.10;12.15;;;;;;;9.99;92.52;98744.25;1733575;82;21056;-47
2022/10/22 03:25:13;;;;;;;20.37;12.10;;;;;;;9.98;92.82;98739.45;1728570;81;21108;-46
2022/10/22 03:27:41;;;;;;;21.15;11.25;;;;;;;9.99;92.95;98741.15;1741407;82;21054;-45
2022/10/22 03:30:09;;;;;;;20.25;11.68;;;;;;;9.99;92.89;98737.21;1746872;80;21573;-44
2022/10/22 03:32:36;;;;;;;17.20;12.00;;;;;;;9.97;92.66;98727.27;1720281;81;21024;-44
2022/10/22 03:35:04;;;;;;;17.62;12.10;;;;;;;9.95;93.13;98722.59;1726802;81;21030;-50
2022/10/22 03:37:32;;;;;;;21.02;11.78;;;;;;;9.98;93.12;98726.80;1738047;82;21375;-43
2022/10/22 03:40:00;;;;;;;17.48;12.18;;;;;;;10.02;92.39;98720.87;1729989;81;21066;-40
2022/10/22 03:42:26;;;;;;;;;;;;;;;10.03;92.40;98712.08;1698361;82;21062;-45
2022/10/22 03:44:53;;;;;;;15.88;11.97;;;;;;;10.00;92.41;98709.15;1729785;82;20126;-45
2022/10/22 03:47:23;;;;;;;18.45;12.30;;;;;;;10.02;92.36;98709.06;1719669;81;21042;-42
2022/10/22 03:49:50;;;;;;;15.83;11.57;;;;;;;10.05;92.21;98710.19;1733564;81;21040;-41
2022/10/22 03:52:17;;;;;;;17.35;12.03;;;;;;;10.05;92.16;98714.13;1734034;82;21031;-43
2022/10/22 03:54:43;;;;;;;19.93;12.03;;;;;;;10.05;92.39;98720.22;1726170;82;20998;-44
2022/10/22 03:57:10;;;;;;;20.90;12.67;;;;;;;10.07;91.93;98724.07;1739701;81;21536;-41
2022/10/22 03:59:45;;;;;;;19.93;11.73;;;;;;;10.05;91.58;98728.10;1717753;81;21187;-50
2022/10/22 04:02:13;;;;;;;14.70;11.12;;;;;;;10.06;92.11;98728.94;1722942;81;21019;-42
2022/10/22 04:04:40;;;;;;;21.33;12.20;;;;;;;10.04;92.27;98726.43;1725287;82;21561;-45
2022/10/22 04:07:07;;;;;;;17.77;11.70;;;;;;;10.05;91.87;98723.33;1739337;82;20992;-46
2022/10/22 04:09:34;;;;;;;25.43;12.60;;;;;;;10.03;91.61;98726.52;1739067;82;21665;-42
2022/10/22 04:12:04;;;;;;;15.58;10.72;;;;;;;10.05;91.67;98727.27;1731946;82;21506;-41
2022/10/22 04:14:30;;;;;;;18.32;11.95;;;;;;;10.05;91.65;98731.20;1726802;82;21058;-40
2022/10/22 04:16:57;;;;;;;17.73;11.90;;;;;;;10.04;91.17;98739.56;1722381;83;21026;-47
2022/10/22 04:19:24;;;;;;;16.57;12.33;;;;;;;10.06;91.26;98743.38;1728740;82;21471;-43
2022/10/22 04:21:50;;;;;;;17.13;12.40;;;;;;;10.07;91.33;98735.89;1728668;81;20990;-48
2022/10/22 04:24:17;;;;;;;18.10;11.60;;;;;;;10.07;91.29;98734.09;1728642;83;20970;-45
2022/10/22 04:26:44;;;;;;;17.27;11.07;;;;;;;10.08;91.25;98730.55;1728792;80;21008;-45
2022/10/22 04:29:11;;;;;;;15.20;10.57;;;;;;;10.12;90.90;98737.77;1736743;82;21024;-43
2022/10/22 04:31:38;;;;;;;20.05;11.38;;;;;;;10.13;90.79;98732.42;1717038;81;21557;-46
2022/10/22 04:34:04;;;;;;;18.93;11.73;;;;;;;10.10;90.63;98733.09;1724041;81;21011;-47
2022/10/22 04:36:31;;;;;;;19.53;10.47;;;;;;;10.08;90.62;98725.77;1708492;82;21051;-46
2022/10/22 04:39:00;;;;;;;16.77;10.80;;;;;;;10.03;90.55;98722.58;1719733;80;21014;-44
2022/10/22 04:41:31;;;;;;;17.05;10.68;;;;;;;10.01;90.52;98724.46;1708632;83;21062;-49
2022/10/22 04:43:59;;;;;;;16.32;11.12;;;;;;;10.03;90.43;98721.27;1716532;82;21534;-45
2022/10/22 04:46:29;;;;;;;17.65;10.88;;;;;;;10.01;90.41;98721.84;1742057;81;21049;-43
2022/10/22 04:48:56;;;;;;;17.80;11.33;;;;;;;10.01;90.41;98725.78;1740467;82;20996;-45
2022/10/22 04:51:25;;;;;;;16.90;11.60;;;;;;;9.99;90.33;98725.87;1729333;82;21035;-42
2022/10/22 04:53:52;;;;;;;19.30;11.73;;;;;;;10.00;90.39;98715.72;1729316;82;21773;-47
2022/10/22 04:56:23;;;;;;;19.30;11.48;;;;;;;9.98;90.09;98713.18;1715612;81;21020;-46
2022/10/22 04:58:54;;;;;;;16.82;10.55;;;;;;;9.98;90.07;98712.34;1728865;82;21503;-44
2022/10/22 05:01:25;;;;;;;18.32;10.68;;;;;;;10.03;90.07;98710.76;1735690;82;21020;-44
2022/10/22 05:03:55;;;;;;;19.65;11.00;;;;;;;10.02;90.32;98711.69;1743091;81;21588;-47
2022/10/22 05:06:23;;;;;;;19.05;11.68;;;;;;;10.06;90.11;98710.10;1711916;81;21539;-47
2022/10/22 05:08:57;;;;;;;15.40;11.00;;;;;;;10.05;89.83;98713.66;1719598;83;21026;-42
2022/10/22 05:11:28;;;;;;;16.02;10.82;;;;;;;10.06;89.61;98710.55;1726006;83;20998;-45
2022/10/22 05:13:56;;;;;;;17.82;10.95;;;;;;;10.03;89.49;98706.82;1729881;82;21070;-43
2022/10/22 05:16:24;;;;;;;17.10;10.65;;;;;;;10.03;89.61;98709.45;1725422;81;21586;-43
2022/10/22 05:18:52;;;;;;;17.32;11.25;;;;;;;10.05;89.70;98707.09;1735865;82;21402;-40
2022/10/22 05:21:20;;;;;;;;;;;;;;;10.08;89.55;98710.84;1729876;80;21005;-47
2022/10/22 05:23:49;;;;;;;17.30;9.83;;;;;;;10.07;89.54;98711.77;1727541;81;20167;-48
2022/10/22 05:26:21;;;;;;;21.90;10.93;;;;;;;10.09;89.40;98720.87;1731728;81;21021;-45
2022/10/22 05:28:49;;;;;;;18.90;10.40;;;;;;;10.10;89.41;98710.75;1712171;82;21036;-44
2022/10/22 05:31:17;;;;;;;17.50;9.98;;;;;;;10.07;89.43;98710.45;1686301;82;21052;-47
2022/10/22 05:33:45;;;;;;;15.45;10.48;;;;;;;10.07;89.28;98710.94;1722300;81;20979;-48
2022/10/22 05:36:15;;;;;;;23.87;12.15;;;;;;;10.01;89.16;98704.77;1730934;82;21018;-43
2022/10/22 05:38:42;;;;;;;20.90;12.50;;;;;;;10.02;89.47;98711.20;1730125;82;21024;-42
2022/10/22 05:41:14;;;;;;;19.00;11.57;;;;;;;10.06;89.13;98718.42;1722818;82;21007;-47
2022/10/22 05:43:40;;;;;;;25.60;11.38;;;;;;;10.06;88.82;98723.68;1713977;82;21196;-46
2022/10/22 05:46:15;;;;;;;22.62;12.33;;;;;;;10.07;89.15;98720.13;1721030;82;21015;-45
2022/10/22 05:48:43;;;;;;;16.75;11.65;;;;;;;10.05;88.81;98717.59;1719639;82;21652;-40
2022/10/22 05:51:12;;;;;;;;;;;;;;;10.05;89.09;98724.64;1726862;82;21061;-43
2022/10/22 05:53:42;;;;;;;14.33;10.23;;;;;;;10.03;89.29;98729.15;1731618;82;20136;-49
2022/10/22 05:56:15;;;;;;;18.30;10.30;;;;;;;10.04;89.12;98731.69;1716781;81;21026;-48
2022/10/22 05:58:43;;;;;;;15.95;10.00;;;;;;;10.09;88.90;98741.41;1719650;82;21019;-42
2022/10/22 06:01:18;;;;;;;16.07;10.35;;;;;;;10.11;88.96;98740.01;1722610;81;21608;-47
2022/10/22 06:03:46;;;;;;;18.23;10.98;;;;;;;10.12;88.97;98734.66;1716255;82;21011;-45
2022/10/22 06:06:30;;;;;;;18.05;11.57;;;;;;;10.16;88.90;98741.89;1722216;82;21553;-47
2022/10/22 06:09:03;;;;;;;17.95;9.80;;;;;;;10.16;88.69;98741.89;1714094;81;21012;-44
2022/10/22 06:11:29;;;;;;;14.47;10.63;;;;;;;10.17;88.67;98746.22;1714054;82;21436;-41
2022/10/22 06:13:56;;;;;;;19.37;9.83;;;;;;;10.21;89.14;98756.90;1728330;82;21520;-46
2022/10/22 06:16:23;;;;;;;15.80;10.20;;;;;;;10.22;88.62;98771.70;1718245;82;20990;-41
2022/10/22 06:18:50;;;;;;;17.23;10.00;;;;;;;10.25;88.89;98779.89;1745791;81;21372;-43
2022/10/22 06:21:16;;;;;;;16.83;10.13;;;;;;;10.25;88.62;98797.80;1732701;81;21032;-47
2022/10/22 06:23:43;;;;;;;13.88;9.80;;;;;;;10.27;88.16;98805.13;1717915;82;21014;-46
2022/10/22 06:26:10;;;;;;;11.60;8.80;;;;;;;10.23;88.28;98805.42;1714388;82;21511;-45
2022/10/22 06:28:38;;;;;;;12.70;9.58;;;;;;;10.19;88.09;98806.08;1729097;82;21022;-46
2022/10/22 06:31:05;;;;;;;16.87;10.30;;;;;;;10.22;88.39;98808.50;1718595;82;21053;-44
2022/10/22 06:33:36;;;;;;;16.75;9.85;;;;;;;10.24;88.55;98804.47;1736002;82;21497;-42
2022/10/22 06:36:07;;;;;;;20.92;10.20;;;;;;;10.24;88.13;98784.31;1737192;81;21024;-47
2022/10/22 06:38:34;;;;;;;13.60;9.53;;;;;;;10.26;87.98;98773.23;1721384;82;20995;-49
2022/10/22 06:41:08;;;;;;;17.73;10.27;;;;;;;10.32;87.95;98773.34;1724517;81;21057;-46
2022/10/22 06:43:35;;;;;;;18.73;9.95;;;;;;;10.32;87.89;98773.34;1734106;81;21000;-46
2022/10/22 06:46:08;;;;;;;16.05;10.10;;;;;;;10.35;88.39;98766.11;1748932;82;21055;-49
2022/10/22 06:48:36;;;;;;;17.75;9.45;;;;;;;10.35;88.47;98760.86;1721219;82;21055;-42
2022/10/22 06:51:06;;;;;;;20.05;10.48;;;;;;;10.43;88.17;98765.63;1722558;81;21025;-42
2022/10/22 06:53:35;;;;;;;17.07;9.60;;;;;;;10.46;88.20;98766.75;1741209;81;21465;-49
2022/10/22 06:56:12;;;;;;;18.77;10.03;;;;;;;10.49;88.07;98768.33;1723958;83;21598;-45
2022/10/22 06:58:39;;;;;;;;;;;;;;;10.54;87.96;98777.61;1726469;80;21544;-45
2022/10/22 07:01:10;;;;;;;15.78;10.45;;;;;;;10.57;87.95;98781.85;1719431;82;20452;-42
2022/10/22 07:03:38;;;;;;;14.90;10.38;;;;;;;10.64;88.21;98791.48;1739906;81;21022;-43
2022/10/22 07:06:09;;;;;;;15.55;9.38;;;;;;;10.63;88.18;98798.54;1718214;81;21018;-45
2022/10/22 07:08:37;;;;;;;20.00;10.05;;;;;;;10.69;87.92;98798.14;1726991;82;21024;-45
2022/10/22 07:11:16;;;;;;;18.12;9.43;;;;;;;10.69;87.87;98796.83;1733369;81;21006;-45
2022/10/22 07:13:44;;;;;;;18.42;10.55;;;;;;;10.72;88.00;98800.58;1735388;81;21541;-45
2022/10/22 07:16:12;;;;;;;18.07;10.60;;;;;;;10.76;88.25;98799.44;1736319;81;21005;-48
2022/10/22 07:18:40;;;;;;;17.25;10.30;;;;;;;10.80;88.09;98805.34;1716764;81;21868;-44
2022/10/22 07:21:09;;;;;;;19.65;10.55;;;;;;;10.87;87.86;98812.38;1725712;83;21007;-43
2022/10/22 07:23:36;;;;;;;15.03;10.38;;;;;;;10.91;87.78;98812.10;1735920;81;21009;-47
2022/10/22 07:26:06;;;;;;;17.37;11.30;;;;;;;10.95;87.52;98806.14;1729586;82;20970;-48
2022/10/22 07:28:38;;;;;;;16.55;11.28;;;;;;;10.97;87.48;98814.80;1721528;81;21052;-43
2022/10/22 07:31:07;;;;;;;20.05;10.98;;;;;;;11.00;87.42;98814.58;1721064;83;21369;-40
2022/10/22 07:33:34;;;;;;;14.20;10.45;;;;;;;11.05;87.38;98807.24;1730169;81;21052;-46
2022/10/22 07:36:05;;;;;;;17.02;10.85;;;;;;;11.08;87.43;98807.05;1739102;82;21635;-42
2022/10/22 07:38:32;;;;;;;14.80;10.38;;;;;;;11.08;87.15;98812.31;1725199;81;21022;-43
2022/10/22 07:41:00;;;;;;;22.70;10.48;;;;;;;11.07;87.54;98815.05;1741806;82;20969;-41
2022/10/22 07:43:28;;;;;;;;;;;;;;;11.09;87.51;98803.46;1744130;82;21616;-47
2022/10/22 07:45:54;;;;;;;17.60;11.00;;;;;;;11.01;87.93;98799.19;1722697;81;20140;-47
2022/10/22 07:48:22;;;;;;;23.27;12.23;;;;;;;11.07;88.02;98792.67;1711111;81;21014;-44
2022/10/22 07:50:50;;;;;;;24.92;11.75;;;;;;;11.06;87.85;98787.89;1719593;81;21067;-48
2022/10/22 07:53:18;;;;;;;15.63;10.80;;;;;;;11.11;88.04;98783.63;1730319;81;21511;-42
2022/10/22 07:55:48;;;;;;;22.67;11.68;;;;;;;10.99;89.00;98797.58;1717547;82;20995;-44
2022/10/22 07:58:17;;;;;;;20.15;11.55;;;;;;;11.07;88.58;98793.99;1729167;81;21070;-41
2022/10/22 08:00:44;;;;;;;23.95;11.88;;;;;;;11.08;88.89;98800.95;1738985;82;21024;-43
2022/10/22 08:03:12;;;;;;;22.90;12.70;;;;;;;11.12;89.09;98815.11;1737252;80;21550;-41
2022/10/22 08:05:41;;;;;;;21.33;12.23;;;;;;;11.17;88.43;98812.64;1738426;82;21007;-43
2022/10/22 08:08:08;;;;;;;22.82;11.65;;;;;;;11.20;88.63;98821.66;1733305;81;21057;-49
2022/10/22 08:10:35;;;;;;;18.42;12.35;;;;;;;11.19;89.76;98820.83;1729339;81;21544;-47
2022/10/22 08:13:02;;;;;;;15.45;11.35;;;;;;;11.20;89.20;98815.08;1732715;82;21123;-43
2022/10/22 08:15:29;;;;;;;22.30;12.10;;;;;;;11.23;88.97;98818.36;1730179;81;21051;-42
2022/10/22 08:17:56;;;;;;;24.05;12.98;;;;;;;11.20;90.50;98815.08;1731628;81;21087;-43
2022/10/22 08:20:23;;;;;;;21.20;12.73;;;;;;;11.19;91.10;98826.09;1736583;82;21014;-47
2022/10/22 08:22:50;;;;;;;18.02;12.40;;;;;;;11.22;90.75;98841.66;1732959;82;21320;-43
2022/10/22 08:25:18;;;;;;;17.35;11.93;;;;;;;11.25;90.16;98837.52;1731058;81;21010;-48
2022/10/22 08:27:45;;;;;;;20.32;12.10;;;;;;;11.24;90.77;98839.80;1731271;81;21059;-42
2022/10/22 08:30:12;;;;;;;21.10;12.63;;;;;;;11.30;90.20;98838.55;1737237;81;21499;-46
2022/10/22 08:32:40;;;;;;;20.70;13.08;;;;;;;11.29;90.39;98840.32;1733484;80;21520;-50
2022/10/22 08:35:07;;;;;;;21.55;12.68;;;;;;;11.29;91.00;98846.06;1727144;81;21051;-48
2022/10/22 08:37:34;;;;;;;24.65;13.35;;;;;;;11.28;91.51;98835.18;1719771;81;21591;-45
2022/10/22 08:40:01;;;;;;;25.75;12.43;;;;;;;11.36;91.17;98839.94;1722775;81;21020;-47
2022/10/22 08:42:57;;;;;;;22.52;12.75;;;;;;;11.38;91.36;98835.41;1739924;81;21052;-44
2022/10/22 08:45:39;;;;;;;26.02;12.88;;;;;;;11.41;91.28;98833.42;1733534;81;21007;-43
2022/10/22 08:48:17;;;;;;;24.20;13.45;;;;;;;11.43;91.29;98829.38;1731876;81;21017;-44
2022/10/22 08:50:50;;;;;;;21.30;13.75;;;;;;;11.44;91.65;98828.41;1727778;81;21029;-41
2022/10/22 08:53:21;;;;;;;23.87;14.03;;;;;;;11.46;91.73;98828.70;1719602;81;21050;-57
2022/10/22 08:55:52;;;;;;;19.15;13.43;;;;;;;11.50;91.56;98818.33;1725878;82;21857;-54
2022/10/22 08:58:38;;;;;;;17.45;13.30;;;;;;;11.55;91.69;98815.41;1728877;81;21010;-57
2022/10/22 09:01:13;;;;;;;20.65;14.47;;;;;;;11.64;91.99;98817.87;1730768;81;21060;-54
2022/10/22 09:03:54;;;;;;;23.50;13.38;;;;;;;11.75;91.54;98807.92;1709606;82;21010;-50
2022/10/22 09:06:24;;;;;;;19.05;12.82;;;;;;;11.83;90.93;98806.95;1722857;83;20986;-48
2022/10/22 09:08:53;;;;;;;19.32;12.65;;;;;;;11.89;90.93;98809.98;1738572;82;21475;-50
2022/10/22 09:11:34;;;;;;;23.40;13.45;;;;;;;11.90;90.76;98813.52;1713027;81;21039;-51
2022/10/22 09:14:02;;;;;;;21.70;13.20;;;;;;;11.93;90.43;98822.51;1710359;82;21023;-48
2022/10/22 09:16:57;;;;;;;21.12;13.68;;;;;;;11.90;91.11;98827.52;1719764;82;21529;-50
2022/10/22 09:19:58;;;;;;;23.52;13.45;;;;;;;11.93;90.38;98837.48;1739831;81;21008;-49
2022/10/22 09:23:11;;;;;;;27.87;14.60;;;;;;;11.98;90.39;98841.97;1733036;82;21029;-48
2022/10/22 09:25:38;;;;;;;21.73;13.83;;;;;;;11.98;90.22;98836.70;1720715;81;21051;-51
2022/10/22 09:28:05;;;;;;;21.73;13.32;;;;;;;11.96;90.34;98842.55;1727923;82;21003;-49
2022/10/22 09:30:37;;;;;;;21.87;14.07;;;;;;;11.89;90.43;98844.23;1730879;82;21019;-50
2022/10/22 09:33:18;;;;;;;17.05;13.30;;;;;;;11.92;90.20;98843.23;1729897;81;20982;-51
2022/10/22 09:36:02;;;;;;;25.15;14.00;;;;;;;11.96;90.21;98853.09;1721978;82;21005;-49
2022/10/22 09:38:33;;;;;;;21.00;13.70;;;;;;;12.00;90.26;98859.83;1700626;82;21043;-52
2022/10/22 09:41:04;;;;;;;26.15;13.95;;;;;;;11.97;90.40;98862.22;1723916;82;21060;-49
2022/10/22 09:43:32;;;;;;;24.85;13.58;;;;;;;11.97;90.37;98852.13;1716844;82;21683;-49
2022/10/22 09:46:05;;;;;;;26.87;14.03;;;;;;;11.98;90.21;98844.60;1700576;82;21043;-49
2022/10/22 09:48:41;;;;;;;16.73;13.22;;;;;;;11.97;91.27;98841.58;1712043;82;20992;-49
2022/10/22 09:51:24;;;;;;;25.30;14.35;;;;;;;12.00;91.10;98831.68;1724363;82;21027;-50
2022/10/22 09:54:02;;;;;;;33.02;14.65;;;;;;;12.03;90.76;98829.33;1727564;80;21032;-48
2022/10/22 09:56:44;;;;;;;26.37;14.65;;;;;;;12.04;90.73;98836.27;1700867;83;21011;-49
2022/10/22 09:59:18;;;;;;;19.40;13.98;;;;;;;12.12;90.24;98844.50;1715596;82;21580;-49
2022/10/22 10:01:44;;;;;;;29.50;14.75;;;;;;;12.12;90.85;98852.89;1736028;81;21056;-48
2022/10/22 10:04:15;;;;;;;26.30;15.23;;;;;;;12.09;91.30;98858.72;1717568;80;21011;-50
2022/10/22 10:06:43;;;;;;;26.75;15.23;;;;;;;12.13;90.43;98860.67;1716979;82;21062;-49
2022/10/22 10:09:24;;;;;;;30.27;14.50;;;;;;;12.14;90.34;98866.33;1723864;82;21008;-48
2022/10/22 10:12:35;;;;;;;23.77;15.55;;;;;;;12.16;90.97;98872.33;1712588;82;21013;-49
2022/10/22 10:15:29;;;;;;;32.17;14.83;;;;;;;12.15;90.65;98864.07;1727929;81;21018;-49
2022/10/22 10:18:22;;;;;;;28.20;16.00;;;;;;;12.14;90.79;98870.28;1710116;82;21504;-49
2022/10/22 10:21:18;;;;;;;25.52;15.48;;;;;;;12.13;91.22;98865.11;1719221;81;21107;-47
2022/10/22 10:24:06;;;;;;;24.75;15.80;;;;;;;12.10;91.86;98858.27;1718751;82;21019;-48
2022/10/22 10:26:37;;;;;;;25.05;15.65;;;;;;;12.09;92.70;98851.30;1723996;82;21029;-48
2022/10/22 10:29:34;;;;;;;30.23;16.27;;;;;;;12.12;91.96;98852.41;1732080;81;21020;-48
2022/10/22 10:32:29;;;;;;;;;;;;;;;12.13;92.41;98852.77;1741107;81;20998;-49
2022/10/22 10:35:21;;;;;;;31.60;16.50;;;;;;;12.13;93.36;98844.02;1733010;82;20428;-48
2022/10/22 10:38:19;;;;;;;27.90;15.45;;;;;;;12.14;93.34;98843.92;1717119;82;21122;-49
2022/10/22 10:40:50;;;;;;;28.35;15.35;;;;;;;12.18;92.83;98849.34;1712615;82;21497;-49
2022/10/22 10:43:43;;;;;;;38.23;16.48;;;;;;;12.18;93.16;98848.50;1721167;82;21014;-47
2022/10/22 10:46:33;;;;;;;28.80;16.80;;;;;;;12.19;93.51;98843.62;1720918;81;21055;-47
2022/10/22 10:49:11;;;;;;;31.10;17.98;;;;;;;12.19;93.97;98855.00;1713212;82;21457;-49
2022/10/22 10:51:58;;;;;;;35.17;17.60;;;;;;;12.20;93.99;98848.75;1726995;82;21052;-48
2022/10/22 10:54:29;;;;;;;;;;;;;;;12.19;94.60;98849.72;1725857;82;20987;-51
2022/10/22 10:57:29;;;;;;;29.92;17.40;;;;;;;12.13;95.23;98848.81;1717705;82;20157;-49
2022/10/22 11:00:15;;;;;;;38.48;18.67;;;;;;;12.16;94.58;98840.70;1719904;82;21014;-50
2022/10/22 11:03:18;;;;;;;33.63;19.05;;;;;;;12.17;94.45;98838.45;1733449;81;21509;-48
2022/10/22 11:05:53;;;;;;;31.42;19.12;;;;;;;12.25;93.96;98841.86;1733950;80;21013;-49
2022/10/22 11:08:33;;;;;;;36.53;19.02;;;;;;;12.31;93.43;98833.52;1714253;82;21027;-52
2022/10/22 11:11:17;;;;;;;37.78;18.37;;;;;;;12.34;93.86;98828.52;1723746;81;21028;-52
2022/10/22 11:13:58;;;;;;;30.43;16.62;;;;;;;12.33;94.35;98830.77;1729710;82;20983;-48
2022/10/22 11:16:40;;;;;;;28.15;16.97;;;;;;;12.37;93.78;98826.97;1741357;81;21020;-48
2022/10/22 11:19:21;;;;;;;36.23;19.50;;;;;;;12.37;93.74;98826.97;1713285;82;21481;-48
2022/10/22 11:22:11;;;;;;;32.45;18.48;;;;;;;12.40;93.73;98828.91;1726783;82;21032;-50
2022/10/22 11:24:58;;;;;;;32.13;17.87;;;;;;;12.41;93.82;98827.98;1711670;81;20997;-48
2022/10/22 11:28:02;;;;;;;32.33;17.23;;;;;;;12.46;93.87;98827.63;1709875;82;21055;-51
2022/10/22 11:30:38;;;;;;;33.65;17.48;;;;;;;12.46;94.14;98825.86;1709313;82;21536;-49
2022/10/22 11:33:10;;;;;;;32.05;16.52;;;;;;;12.51;93.78;98827.33;1719356;82;21005;-51
2022/10/22 11:35:43;;;;;;;24.82;15.88;;;;;;;12.53;93.72;98822.30;1724091;82;21054;-51
2022/10/22 11:38:18;;;;;;;29.20;16.60;;;;;;;12.56;93.25;98829.17;1712522;82;20991;-51
2022/10/22 11:40:59;;;;;;;31.05;16.32;;;;;;;12.61;93.13;98829.20;1725005;82;21080;-48
2022/10/22 11:43:34;;;;;;;37.78;15.53;;;;;;;12.65;92.96;98829.34;1704959;83;21026;-49
2022/10/22 11:46:18;;;;;;;27.15;15.93;;;;;;;12.71;92.56;98828.06;1719906;81;21121;-50
2022/10/22 11:49:02;;;;;;;24.55;14.45;;;;;;;12.75;92.55;98830.00;1717020;81;21062;-49
2022/10/22 11:51:36;;;;;;;28.40;15.28;;;;;;;12.75;92.78;98830.00;1726031;82;21014;-50